TABS, Texas Automated Buoy System, NOAA HAZMAT, Ocean Observatory, Real Time Oceanographic Data Supporting Oil Spill Prevention and Response

Texas General Land Office  Texas General
 Land Office
 Oil Spill Prevention
 & Response
Texas Automated Buoy System
Real Time Ocean Observations
Supporting Oil Spill Prevention and Response since 1995
Geochemical and Environmental Research Group

TABS Buoy J -- Texas Automated Buoy System

TABS Buoy J Conditions at 12/22/2014 18:46 UTC (12/22/2014 12:46 CST)
26° 11.4840'N   97° 3.0420'W
AA3900 DCS - sensor depth 2m
Anemometer height: 4m
Water Depth: 68 feet (20 meters)
Speed: N/A            Direction: N/A            Water Temp: 0°C (32 °F)
System Voltage: 0.0 V Signal Strength: 0.0 dB Ping Count: 0
Wind: 4.1 m/s (7.9 kts)
          From 337°T (NNW)
Air Temp: 16 °C (61 °F)
Relative Humidity:  N/A
Pressure: 1023.2 mb (30.21 inHg)

  


IMPORTANT: Notice to Mariners


Today's Meteorological Data (download)

   Date   |  Time  |  VEast   North    AirT  AtmPr     Gust   Comp   Tx   Ty    PAR   RelH
          |  (UTC) |  (m/s)|  (m/s)|   (°C)|  (mb) |  (m/s)|  (°M) |    |    |      |  (%) |
==========+========+=======+=======+=======+=======+=======+=======+====+====+======+======+
11/19/2014 00:00:00   -7.02    0.18    16.2 1028.25    9.78   102.2    4    4    0.0   88.1
11/19/2014 00:30:00   -7.06   -1.03    16.4 1028.59   10.08    99.2    5    4    0.0   86.2
11/19/2014 01:00:00   -6.62   -0.84    16.4 1028.54    9.71    95.8    5    4    0.0   87.0
11/19/2014 01:30:00   -6.70   -0.57    16.4 1028.66   10.16    97.5    5    4    0.0   84.6
11/19/2014 02:00:00   -6.25   -0.31    16.4 1028.81    9.35   100.6    4    4    0.0   84.9
11/19/2014 02:30:00   -5.66    0.05    16.7 1029.07    8.20   101.6    4    3    0.0   83.4
11/19/2014 03:00:00   -5.81    0.99    16.8 1029.06    7.96   104.8    4    3    0.0   84.5
11/19/2014 03:30:00   -5.23    1.24    16.8 1029.05    7.95   107.3    3    3    0.0   82.5
11/19/2014 04:00:00   -5.06   -0.17    16.9 1029.11    6.55   101.1    4    3    0.0   84.9
11/19/2014 04:30:00   -4.61    1.57    17.1 1028.92    6.67   114.1    3    3    0.0   84.8
11/19/2014 05:00:00   -4.35    1.99    17.1 1028.55    6.49   114.7    3    3    0.0   86.9
11/19/2014 05:30:00   -4.33    1.62    17.2 1028.28    6.51   110.2    3    3    0.0   89.1
11/19/2014 06:00:00   -3.77    2.16    17.1 1028.01    5.99   111.7    2    3    0.0   87.6
11/19/2014 06:30:00   -2.66    1.96    17.2 1027.95    4.58   119.3    2    3    0.0   86.1
11/19/2014 07:00:00   -3.63    1.05    17.3 1027.72    5.06   110.0    2    3    0.0   86.6
11/19/2014 07:30:00   -3.44    2.13    17.2 1027.57    5.73   112.3    2    3    0.0   83.4
11/19/2014 08:00:00   -1.33    0.93    17.4 1027.29    4.07    98.5    2    2    0.0   85.3
11/19/2014 08:30:00    4.24   -2.36    14.2 1026.89    6.75     0.8    4    2    0.0   99.6
11/19/2014 09:00:00    3.98   -2.56    13.7 1026.89    6.02    15.3    4    2    0.0   99.8
11/19/2014 09:30:00    3.39   -2.51    13.5 1026.56    5.40     9.5    4    2    0.0   99.7
11/19/2014 10:00:00    2.22   -3.04    13.9 1026.31    4.84    35.5    4    2    0.0   99.9
11/19/2014 10:30:00    3.55   -2.10    14.1 1026.10    5.38    21.2    4    2    0.0   99.8
11/19/2014 11:00:00    4.76   -2.56    12.7 1025.99    7.02   343.6    5    1    0.0   99.9
11/19/2014 11:30:00    3.95   -3.43    12.2 1025.98    6.59     2.6    5    2    0.0   99.6
11/19/2014 12:00:00    3.73   -3.44    12.5 1026.16    6.41     4.6    5    2    0.0   99.9
11/19/2014 12:30:00    4.46   -3.91    12.4 1026.48    7.34   355.5    5    2    0.0   99.9
11/19/2014 13:00:00    5.12   -4.24    12.5 1026.88    8.09   348.3    5    2    0.0   99.9
11/19/2014 13:30:00    4.27   -4.37    12.0 1026.80    7.67   355.4    5    2    0.0   99.8
11/19/2014 14:00:00    3.29   -4.34    12.4 1026.61    6.88     7.9    5    2    0.0   99.8
11/19/2014 14:30:00    3.38   -3.59    13.3 1026.96    6.24     6.6    4    2    0.0   99.9
11/19/2014 15:00:00    2.46   -4.07    13.6 1026.99    6.05    20.7    5    3    0.0 -999.0
11/19/2014 15:30:00    1.91   -4.08    13.6 1026.99    5.66    23.3    4    2    0.0   99.8
11/19/2014 16:00:00    1.79   -3.65    14.1 1026.83    5.17    34.4    4    3    0.0 -999.0
11/19/2014 16:30:00    1.61   -3.52    14.4 1026.53    5.26    35.4    4    3    0.0 -999.0
11/19/2014 17:00:00    1.59   -3.79    14.7 1026.46    5.14    34.0    4    2    0.0 -999.0
11/19/2014 17:30:00    2.44   -3.78    14.9 1026.12    5.82    23.1    5    3    0.0 -999.0
11/19/2014 18:00:00    2.10   -4.17    15.0 1025.61    6.23    29.0    5    3    0.0 -999.0
11/19/2014 18:30:00    2.45   -4.61    15.0 1024.85    6.26    16.1    5    2    0.0 -999.0
11/19/2014 19:00:00    2.09   -4.47    15.3 1024.29    6.04    22.7    5    3    0.0 -999.0
11/19/2014 19:30:00    1.69   -3.97    15.6 1023.80    5.56    40.9    5    3    0.0 -999.0
11/19/2014 20:00:00    1.34   -4.06    16.1 1023.45    5.86    43.1    5    3    0.0 -999.0
11/19/2014 20:30:00    1.60   -3.73    16.2 1023.17    5.19    45.1    5    3    0.0 -999.0